sensor_id;sensor_type;location;lat;lon;timestamp;P1;durP1;ratioP1;P2;durP2;ratioP2
38465;SDS011;24244;51.950;5.902;2024-02-26T00:01:04;3.78;;;2.65;;
38465;SDS011;24244;51.950;5.902;2024-02-26T00:03:31;4.82;;;2.63;;
38465;SDS011;24244;51.950;5.902;2024-02-26T00:06:01;4.68;;;2.85;;
38465;SDS011;24244;51.950;5.902;2024-02-26T00:08:29;5.63;;;3.38;;
38465;SDS011;24244;51.950;5.902;2024-02-26T00:10:56;4.00;;;2.55;;
38465;SDS011;24244;51.950;5.902;2024-02-26T00:13:24;4.68;;;3.05;;
38465;SDS011;24244;51.950;5.902;2024-02-26T00:15:50;4.43;;;2.75;;
38465;SDS011;24244;51.950;5.902;2024-02-26T00:18:17;6.13;;;3.25;;
38465;SDS011;24244;51.950;5.902;2024-02-26T00:20:44;4.00;;;2.90;;
38465;SDS011;24244;51.950;5.902;2024-02-26T00:23:11;4.88;;;2.75;;
38465;SDS011;24244;51.950;5.902;2024-02-26T00:25:40;5.50;;;3.70;;
38465;SDS011;24244;51.950;5.902;2024-02-26T00:28:09;4.10;;;3.30;;
38465;SDS011;24244;51.950;5.902;2024-02-26T00:30:38;4.13;;;2.45;;
38465;SDS011;24244;51.950;5.902;2024-02-26T00:33:04;4.40;;;3.30;;
38465;SDS011;24244;51.950;5.902;2024-02-26T00:35:31;5.20;;;3.00;;
38465;SDS011;24244;51.950;5.902;2024-02-26T00:37:58;4.30;;;2.95;;
38465;SDS011;24244;51.950;5.902;2024-02-26T00:40:27;5.63;;;3.47;;
38465;SDS011;24244;51.950;5.902;2024-02-26T00:42:54;4.70;;;3.80;;
38465;SDS011;24244;51.950;5.902;2024-02-26T00:45:20;6.32;;;3.28;;
38465;SDS011;24244;51.950;5.902;2024-02-26T00:47:49;4.43;;;3.00;;
38465;SDS011;24244;51.950;5.902;2024-02-26T00:50:16;4.70;;;3.08;;
38465;SDS011;24244;51.950;5.902;2024-02-26T00:52:43;5.32;;;2.85;;
38465;SDS011;24244;51.950;5.902;2024-02-26T00:55:10;4.57;;;3.35;;
38465;SDS011;24244;51.950;5.902;2024-02-26T00:57:36;4.15;;;2.70;;
38465;SDS011;24244;51.950;5.902;2024-02-26T01:00:04;4.82;;;2.97;;
38465;SDS011;24244;51.950;5.902;2024-02-26T01:02:31;5.78;;;3.63;;
38465;SDS011;24244;51.950;5.902;2024-02-26T01:05:00;4.50;;;2.72;;
38465;SDS011;24244;51.950;5.902;2024-02-26T01:07:26;4.47;;;2.33;;
38465;SDS011;24244;51.950;5.902;2024-02-26T01:09:53;3.75;;;2.63;;
38465;SDS011;24244;51.950;5.902;2024-02-26T01:12:20;4.45;;;3.10;;
38465;SDS011;24244;51.950;5.902;2024-02-26T01:14:47;6.13;;;3.35;;
38465;SDS011;24244;51.950;5.902;2024-02-26T01:17:14;4.25;;;2.85;;
38465;SDS011;24244;51.950;5.902;2024-02-26T01:19:41;4.32;;;2.40;;
38465;SDS011;24244;51.950;5.902;2024-02-26T01:22:09;4.30;;;2.30;;
38465;SDS011;24244;51.950;5.902;2024-02-26T01:24:36;4.03;;;2.22;;
38465;SDS011;24244;51.950;5.902;2024-02-26T01:27:02;3.72;;;2.30;;
38465;SDS011;24244;51.950;5.902;2024-02-26T01:29:30;4.38;;;2.78;;
38465;SDS011;24244;51.950;5.902;2024-02-26T01:31:57;3.63;;;2.42;;
38465;SDS011;24244;51.950;5.902;2024-02-26T01:34:23;4.47;;;1.92;;
38465;SDS011;24244;51.950;5.902;2024-02-26T01:36:50;5.10;;;3.00;;
38465;SDS011;24244;51.950;5.902;2024-02-26T01:39:19;4.25;;;2.25;;
38465;SDS011;24244;51.950;5.902;2024-02-26T01:41:45;4.82;;;3.05;;
38465;SDS011;24244;51.950;5.902;2024-02-26T01:44:12;4.18;;;1.80;;
38465;SDS011;24244;51.950;5.902;2024-02-26T01:46:42;4.82;;;2.88;;
38465;SDS011;24244;51.950;5.902;2024-02-26T01:49:09;3.67;;;2.00;;
38465;SDS011;24244;51.950;5.902;2024-02-26T01:51:39;3.28;;;1.85;;
38465;SDS011;24244;51.950;5.902;2024-02-26T01:54:08;3.47;;;1.92;;
38465;SDS011;24244;51.950;5.902;2024-02-26T01:56:37;4.90;;;2.20;;
38465;SDS011;24244;51.950;5.902;2024-02-26T01:59:05;3.75;;;2.70;;
38465;SDS011;24244;51.950;5.902;2024-02-26T02:01:34;3.00;;;1.90;;
38465;SDS011;24244;51.950;5.902;2024-02-26T02:04:03;5.07;;;2.00;;
38465;SDS011;24244;51.950;5.902;2024-02-26T02:06:30;4.10;;;2.45;;
38465;SDS011;24244;51.950;5.902;2024-02-26T02:08:57;4.40;;;2.80;;
38465;SDS011;24244;51.950;5.902;2024-02-26T02:11:24;4.50;;;2.65;;
38465;SDS011;24244;51.950;5.902;2024-02-26T02:13:52;3.85;;;2.60;;
38465;SDS011;24244;51.950;5.902;2024-02-26T02:16:19;7.50;;;2.65;;
38465;SDS011;24244;51.950;5.902;2024-02-26T02:18:45;5.60;;;2.83;;
38465;SDS011;24244;51.950;5.902;2024-02-26T02:21:14;4.75;;;3.42;;
38465;SDS011;24244;51.950;5.902;2024-02-26T02:23:40;5.25;;;3.10;;
38465;SDS011;24244;51.950;5.902;2024-02-26T02:26:12;4.53;;;3.22;;
38465;SDS011;24244;51.950;5.902;2024-02-26T02:28:40;4.85;;;3.47;;
38465;SDS011;24244;51.950;5.902;2024-02-26T02:31:07;4.88;;;3.45;;
38465;SDS011;24244;51.950;5.902;2024-02-26T02:33:34;5.65;;;3.58;;
38465;SDS011;24244;51.950;5.902;2024-02-26T02:36:01;6.00;;;4.10;;
38465;SDS011;24244;51.950;5.902;2024-02-26T02:38:29;5.97;;;3.38;;
38465;SDS011;24244;51.950;5.902;2024-02-26T02:40:58;5.18;;;3.33;;
38465;SDS011;24244;51.950;5.902;2024-02-26T02:43:24;5.30;;;4.03;;
38465;SDS011;24244;51.950;5.902;2024-02-26T02:45:52;4.75;;;3.53;;
38465;SDS011;24244;51.950;5.902;2024-02-26T02:48:19;6.22;;;4.03;;
38465;SDS011;24244;51.950;5.902;2024-02-26T02:50:46;6.53;;;3.80;;
38465;SDS011;24244;51.950;5.902;2024-02-26T02:53:13;7.60;;;3.20;;
38465;SDS011;24244;51.950;5.902;2024-02-26T02:55:41;5.82;;;3.42;;
38465;SDS011;24244;51.950;5.902;2024-02-26T02:58:08;4.93;;;3.47;;
38465;SDS011;24244;51.950;5.902;2024-02-26T03:00:35;6.65;;;3.60;;
38465;SDS011;24244;51.950;5.902;2024-02-26T03:03:01;4.97;;;3.40;;
38465;SDS011;24244;51.950;5.902;2024-02-26T03:05:28;5.60;;;2.92;;
38465;SDS011;24244;51.950;5.902;2024-02-26T03:07:55;5.13;;;3.20;;
38465;SDS011;24244;51.950;5.902;2024-02-26T03:10:22;4.60;;;2.50;;
38465;SDS011;24244;51.950;5.902;2024-02-26T03:12:50;5.60;;;2.83;;
38465;SDS011;24244;51.950;5.902;2024-02-26T03:15:17;5.35;;;2.95;;
38465;SDS011;24244;51.950;5.902;2024-02-26T03:17:44;5.28;;;3.38;;
38465;SDS011;24244;51.950;5.902;2024-02-26T03:20:11;6.70;;;3.80;;
38465;SDS011;24244;51.950;5.902;2024-02-26T03:22:38;4.65;;;3.28;;
38465;SDS011;24244;51.950;5.902;2024-02-26T03:25:05;5.40;;;3.00;;
38465;SDS011;24244;51.950;5.902;2024-02-26T03:27:32;5.32;;;3.25;;
38465;SDS011;24244;51.950;5.902;2024-02-26T03:30:01;4.82;;;3.20;;
38465;SDS011;24244;51.950;5.902;2024-02-26T03:32:29;5.60;;;3.75;;
38465;SDS011;24244;51.950;5.902;2024-02-26T03:34:55;4.45;;;3.05;;
38465;SDS011;24244;51.950;5.902;2024-02-26T03:37:22;5.07;;;2.63;;
38465;SDS011;24244;51.950;5.902;2024-02-26T03:39:49;6.47;;;3.47;;
38465;SDS011;24244;51.950;5.902;2024-02-26T03:42:16;5.13;;;3.05;;
38465;SDS011;24244;51.950;5.902;2024-02-26T03:44:43;4.78;;;3.00;;
38465;SDS011;24244;51.950;5.902;2024-02-26T03:47:11;5.25;;;2.47;;
38465;SDS011;24244;51.950;5.902;2024-02-26T03:49:37;4.90;;;3.38;;
38465;SDS011;24244;51.950;5.902;2024-02-26T03:52:04;4.32;;;2.67;;
38465;SDS011;24244;51.950;5.902;2024-02-26T03:54:31;4.32;;;3.55;;
38465;SDS011;24244;51.950;5.902;2024-02-26T03:56:58;6.38;;;3.00;;
38465;SDS011;24244;51.950;5.902;2024-02-26T03:59:25;5.70;;;3.20;;
38465;SDS011;24244;51.950;5.902;2024-02-26T04:01:52;4.20;;;2.33;;
38465;SDS011;24244;51.950;5.902;2024-02-26T04:04:21;4.97;;;3.50;;
38465;SDS011;24244;51.950;5.902;2024-02-26T04:06:47;4.53;;;3.10;;
38465;SDS011;24244;51.950;5.902;2024-02-26T04:09:14;3.83;;;2.25;;
38465;SDS011;24244;51.950;5.902;2024-02-26T04:11:41;5.07;;;3.00;;
38465;SDS011;24244;51.950;5.902;2024-02-26T04:14:11;4.25;;;2.85;;
38465;SDS011;24244;51.950;5.902;2024-02-26T04:16:38;3.97;;;2.08;;
38465;SDS011;24244;51.950;5.902;2024-02-26T04:19:05;3.50;;;2.13;;
38465;SDS011;24244;51.950;5.902;2024-02-26T04:21:34;5.10;;;3.38;;
38465;SDS011;24244;51.950;5.902;2024-02-26T04:24:01;4.53;;;3.03;;
38465;SDS011;24244;51.950;5.902;2024-02-26T04:26:29;4.32;;;3.10;;
38465;SDS011;24244;51.950;5.902;2024-02-26T04:28:56;5.35;;;2.58;;
38465;SDS011;24244;51.950;5.902;2024-02-26T04:31:23;6.18;;;2.80;;
38465;SDS011;24244;51.950;5.902;2024-02-26T04:33:50;5.65;;;2.55;;
38465;SDS011;24244;51.950;5.902;2024-02-26T04:36:17;5.20;;;2.42;;
38465;SDS011;24244;51.950;5.902;2024-02-26T04:38:45;4.28;;;2.88;;
38465;SDS011;24244;51.950;5.902;2024-02-26T04:41:12;5.80;;;2.60;;
38465;SDS011;24244;51.950;5.902;2024-02-26T04:43:40;3.97;;;2.45;;
38465;SDS011;24244;51.950;5.902;2024-02-26T04:46:08;4.15;;;2.50;;
38465;SDS011;24244;51.950;5.902;2024-02-26T04:48:35;4.55;;;2.72;;
38465;SDS011;24244;51.950;5.902;2024-02-26T04:51:02;5.85;;;3.33;;
38465;SDS011;24244;51.950;5.902;2024-02-26T04:53:29;4.57;;;2.33;;
38465;SDS011;24244;51.950;5.902;2024-02-26T04:55:57;3.85;;;2.60;;
38465;SDS011;24244;51.950;5.902;2024-02-26T04:58:24;4.80;;;2.60;;
38465;SDS011;24244;51.950;5.902;2024-02-26T05:00:51;5.32;;;3.90;;
38465;SDS011;24244;51.950;5.902;2024-02-26T05:03:18;4.50;;;2.20;;
38465;SDS011;24244;51.950;5.902;2024-02-26T05:05:45;5.15;;;3.22;;
38465;SDS011;24244;51.950;5.902;2024-02-26T05:08:12;5.72;;;3.00;;
38465;SDS011;24244;51.950;5.902;2024-02-26T05:10:39;4.10;;;2.63;;
38465;SDS011;24244;51.950;5.902;2024-02-26T05:13:08;5.78;;;3.30;;
38465;SDS011;24244;51.950;5.902;2024-02-26T05:15:35;5.40;;;2.90;;
38465;SDS011;24244;51.950;5.902;2024-02-26T05:18:02;4.63;;;3.08;;
38465;SDS011;24244;51.950;5.902;2024-02-26T05:20:30;4.88;;;2.50;;
38465;SDS011;24244;51.950;5.902;2024-02-26T05:22:58;5.28;;;3.50;;
38465;SDS011;24244;51.950;5.902;2024-02-26T05:25:25;4.18;;;2.65;;
38465;SDS011;24244;51.950;5.902;2024-02-26T05:27:52;4.93;;;3.30;;
38465;SDS011;24244;51.950;5.902;2024-02-26T05:30:20;5.35;;;2.55;;
38465;SDS011;24244;51.950;5.902;2024-02-26T05:32:47;4.75;;;3.38;;
38465;SDS011;24244;51.950;5.902;2024-02-26T05:35:13;4.15;;;2.88;;
38465;SDS011;24244;51.950;5.902;2024-02-26T05:37:41;4.80;;;3.10;;
38465;SDS011;24244;51.950;5.902;2024-02-26T05:40:08;4.50;;;2.53;;
38465;SDS011;24244;51.950;5.902;2024-02-26T05:42:35;6.60;;;3.03;;
38465;SDS011;24244;51.950;5.902;2024-02-26T05:45:02;5.07;;;3.00;;
38465;SDS011;24244;51.950;5.902;2024-02-26T05:47:34;5.80;;;3.35;;
38465;SDS011;24244;51.950;5.902;2024-02-26T05:50:01;5.43;;;3.42;;
38465;SDS011;24244;51.950;5.902;2024-02-26T05:52:28;6.63;;;3.40;;
38465;SDS011;24244;51.950;5.902;2024-02-26T05:54:56;4.78;;;3.05;;
38465;SDS011;24244;51.950;5.902;2024-02-26T05:57:23;6.55;;;3.05;;
38465;SDS011;24244;51.950;5.902;2024-02-26T05:59:50;5.28;;;3.40;;
38465;SDS011;24244;51.950;5.902;2024-02-26T06:02:16;5.18;;;3.42;;
38465;SDS011;24244;51.950;5.902;2024-02-26T06:04:44;5.28;;;2.60;;
38465;SDS011;24244;51.950;5.902;2024-02-26T06:07:12;5.85;;;3.55;;
38465;SDS011;24244;51.950;5.902;2024-02-26T06:09:39;6.25;;;3.55;;
38465;SDS011;24244;51.950;5.902;2024-02-26T06:12:06;5.70;;;3.22;;
38465;SDS011;24244;51.950;5.902;2024-02-26T06:14:33;4.78;;;2.95;;
38465;SDS011;24244;51.950;5.902;2024-02-26T06:17:00;4.43;;;3.53;;
38465;SDS011;24244;51.950;5.902;2024-02-26T06:19:27;5.72;;;2.92;;
38465;SDS011;24244;51.950;5.902;2024-02-26T06:21:55;4.93;;;3.08;;
38465;SDS011;24244;51.950;5.902;2024-02-26T06:24:22;5.03;;;3.65;;
38465;SDS011;24244;51.950;5.902;2024-02-26T06:26:49;6.18;;;3.47;;
38465;SDS011;24244;51.950;5.902;2024-02-26T06:29:15;6.53;;;2.55;;
38465;SDS011;24244;51.950;5.902;2024-02-26T06:31:42;4.57;;;2.60;;
38465;SDS011;24244;51.950;5.902;2024-02-26T06:34:09;7.65;;;4.05;;
38465;SDS011;24244;51.950;5.902;2024-02-26T06:36:38;5.55;;;3.58;;
38465;SDS011;24244;51.950;5.902;2024-02-26T06:39:06;5.60;;;3.28;;
38465;SDS011;24244;51.950;5.902;2024-02-26T06:41:34;5.32;;;2.70;;
38465;SDS011;24244;51.950;5.902;2024-02-26T06:44:02;4.72;;;2.90;;
38465;SDS011;24244;51.950;5.902;2024-02-26T06:46:29;5.82;;;2.85;;
38465;SDS011;24244;51.950;5.902;2024-02-26T06:48:57;6.10;;;3.72;;
38465;SDS011;24244;51.950;5.902;2024-02-26T06:51:24;5.13;;;2.75;;
38465;SDS011;24244;51.950;5.902;2024-02-26T06:53:50;5.13;;;3.28;;
38465;SDS011;24244;51.950;5.902;2024-02-26T06:56:19;6.78;;;4.28;;
38465;SDS011;24244;51.950;5.902;2024-02-26T06:58:45;6.25;;;3.42;;
38465;SDS011;24244;51.950;5.902;2024-02-26T07:01:12;6.07;;;3.60;;
38465;SDS011;24244;51.950;5.902;2024-02-26T07:03:40;7.07;;;3.38;;
38465;SDS011;24244;51.950;5.902;2024-02-26T07:06:07;7.07;;;4.15;;
38465;SDS011;24244;51.950;5.902;2024-02-26T07:08:35;5.97;;;4.10;;
38465;SDS011;24244;51.950;5.902;2024-02-26T07:11:02;6.07;;;4.18;;
38465;SDS011;24244;51.950;5.902;2024-02-26T07:13:30;6.07;;;3.90;;
38465;SDS011;24244;51.950;5.902;2024-02-26T07:15:57;7.53;;;3.72;;
38465;SDS011;24244;51.950;5.902;2024-02-26T07:18:24;7.22;;;3.53;;
38465;SDS011;24244;51.950;5.902;2024-02-26T07:20:51;5.57;;;3.63;;
38465;SDS011;24244;51.950;5.902;2024-02-26T07:23:18;5.93;;;3.50;;
38465;SDS011;24244;51.950;5.902;2024-02-26T07:25:44;6.72;;;4.97;;
38465;SDS011;24244;51.950;5.902;2024-02-26T07:28:14;7.22;;;4.80;;
38465;SDS011;24244;51.950;5.902;2024-02-26T07:30:42;6.25;;;3.65;;
38465;SDS011;24244;51.950;5.902;2024-02-26T07:33:09;7.97;;;4.82;;
38465;SDS011;24244;51.950;5.902;2024-02-26T07:35:36;8.02;;;5.53;;
38465;SDS011;24244;51.950;5.902;2024-02-26T07:38:04;6.72;;;3.90;;
38465;SDS011;24244;51.950;5.902;2024-02-26T07:40:31;7.13;;;4.65;;
38465;SDS011;24244;51.950;5.902;2024-02-26T07:42:58;8.23;;;4.43;;
38465;SDS011;24244;51.950;5.902;2024-02-26T07:45:25;9.48;;;4.78;;
38465;SDS011;24244;51.950;5.902;2024-02-26T07:47:53;7.75;;;4.93;;
38465;SDS011;24244;51.950;5.902;2024-02-26T07:50:20;8.32;;;4.90;;
38465;SDS011;24244;51.950;5.902;2024-02-26T07:52:47;7.57;;;4.30;;
38465;SDS011;24244;51.950;5.902;2024-02-26T07:55:14;8.25;;;5.53;;
38465;SDS011;24244;51.950;5.902;2024-02-26T07:57:41;8.48;;;5.50;;
38465;SDS011;24244;51.950;5.902;2024-02-26T08:00:10;10.75;;;5.55;;
38465;SDS011;24244;51.950;5.902;2024-02-26T08:02:37;9.93;;;5.38;;
38465;SDS011;24244;51.950;5.902;2024-02-26T08:05:06;10.90;;;6.53;;
38465;SDS011;24244;51.950;5.902;2024-02-26T08:07:33;9.70;;;6.07;;
38465;SDS011;24244;51.950;5.902;2024-02-26T08:09:59;9.77;;;6.28;;
38465;SDS011;24244;51.950;5.902;2024-02-26T08:12:28;10.02;;;6.18;;
38465;SDS011;24244;51.950;5.902;2024-02-26T08:14:55;8.82;;;5.25;;
38465;SDS011;24244;51.950;5.902;2024-02-26T08:17:22;9.75;;;5.70;;
38465;SDS011;24244;51.950;5.902;2024-02-26T08:19:49;11.30;;;6.15;;
38465;SDS011;24244;51.950;5.902;2024-02-26T08:22:17;9.63;;;5.22;;
38465;SDS011;24244;51.950;5.902;2024-02-26T08:24:44;11.90;;;6.35;;
38465;SDS011;24244;51.950;5.902;2024-02-26T08:27:11;11.50;;;7.25;;
38465;SDS011;24244;51.950;5.902;2024-02-26T08:29:37;12.25;;;6.10;;
38465;SDS011;24244;51.950;5.902;2024-02-26T08:32:04;10.65;;;6.15;;
38465;SDS011;24244;51.950;5.902;2024-02-26T08:34:33;11.27;;;6.38;;
38465;SDS011;24244;51.950;5.902;2024-02-26T08:37:00;10.63;;;6.07;;
38465;SDS011;24244;51.950;5.902;2024-02-26T08:39:28;11.52;;;5.90;;
38465;SDS011;24244;51.950;5.902;2024-02-26T08:41:55;12.18;;;5.40;;
38465;SDS011;24244;51.950;5.902;2024-02-26T08:44:22;10.57;;;5.35;;
38465;SDS011;24244;51.950;5.902;2024-02-26T08:46:49;12.00;;;6.75;;
38465;SDS011;24244;51.950;5.902;2024-02-26T08:49:17;13.55;;;6.97;;
38465;SDS011;24244;51.950;5.902;2024-02-26T08:51:44;12.32;;;6.03;;
38465;SDS011;24244;51.950;5.902;2024-02-26T08:54:11;11.40;;;6.68;;
38465;SDS011;24244;51.950;5.902;2024-02-26T08:56:39;12.23;;;6.10;;
38465;SDS011;24244;51.950;5.902;2024-02-26T08:59:06;10.32;;;6.28;;
38465;SDS011;24244;51.950;5.902;2024-02-26T09:01:33;12.07;;;6.05;;
38465;SDS011;24244;51.950;5.902;2024-02-26T09:04:00;11.77;;;6.25;;
38465;SDS011;24244;51.950;5.902;2024-02-26T09:06:27;11.20;;;6.53;;
38465;SDS011;24244;51.950;5.902;2024-02-26T09:08:54;12.13;;;5.72;;
38465;SDS011;24244;51.950;5.902;2024-02-26T09:13:54;12.93;;;6.97;;
38465;SDS011;24244;51.950;5.902;2024-02-26T09:16:21;12.07;;;6.65;;
38465;SDS011;24244;51.950;5.902;2024-02-26T09:18:48;11.55;;;5.22;;
38465;SDS011;24244;51.950;5.902;2024-02-26T09:21:15;13.20;;;6.38;;
38465;SDS011;24244;51.950;5.902;2024-02-26T09:23:44;12.52;;;5.70;;
38465;SDS011;24244;51.950;5.902;2024-02-26T09:26:11;13.10;;;5.65;;
38465;SDS011;24244;51.950;5.902;2024-02-26T09:28:38;14.73;;;7.45;;
38465;SDS011;24244;51.950;5.902;2024-02-26T09:31:06;15.70;;;7.63;;
38465;SDS011;24244;51.950;5.902;2024-02-26T09:33:33;16.25;;;6.93;;
38465;SDS011;24244;51.950;5.902;2024-02-26T09:36:01;13.63;;;6.20;;
38465;SDS011;24244;51.950;5.902;2024-02-26T09:38:28;14.48;;;6.80;;
38465;SDS011;24244;51.950;5.902;2024-02-26T09:41:02;14.65;;;7.82;;
38465;SDS011;24244;51.950;5.902;2024-02-26T09:43:30;12.35;;;5.93;;
38465;SDS011;24244;51.950;5.902;2024-02-26T09:46:00;16.60;;;7.45;;
38465;SDS011;24244;51.950;5.902;2024-02-26T09:48:32;13.82;;;6.38;;
38465;SDS011;24244;51.950;5.902;2024-02-26T09:51:01;14.20;;;7.18;;
38465;SDS011;24244;51.950;5.902;2024-02-26T09:53:29;15.05;;;7.10;;
38465;SDS011;24244;51.950;5.902;2024-02-26T09:55:57;11.75;;;6.43;;
38465;SDS011;24244;51.950;5.902;2024-02-26T09:58:24;13.40;;;7.07;;
38465;SDS011;24244;51.950;5.902;2024-02-26T10:00:55;15.95;;;6.80;;
38465;SDS011;24244;51.950;5.902;2024-02-26T10:03:25;13.55;;;5.68;;
38465;SDS011;24244;51.950;5.902;2024-02-26T10:05:58;15.73;;;7.63;;
38465;SDS011;24244;51.950;5.902;2024-02-26T10:08:25;12.05;;;5.63;;
38465;SDS011;24244;51.950;5.902;2024-02-26T10:10:53;13.30;;;6.43;;
38465;SDS011;24244;51.950;5.902;2024-02-26T10:13:21;13.80;;;6.93;;
38465;SDS011;24244;51.950;5.902;2024-02-26T10:15:47;15.63;;;5.75;;
38465;SDS011;24244;51.950;5.902;2024-02-26T10:18:14;12.45;;;5.43;;
38465;SDS011;24244;51.950;5.902;2024-02-26T10:20:41;13.55;;;6.05;;
38465;SDS011;24244;51.950;5.902;2024-02-26T10:23:09;11.75;;;5.45;;
38465;SDS011;24244;51.950;5.902;2024-02-26T10:25:36;12.23;;;6.57;;
38465;SDS011;24244;51.950;5.902;2024-02-26T10:28:03;10.10;;;5.00;;
38465;SDS011;24244;51.950;5.902;2024-02-26T10:30:30;13.55;;;6.20;;
38465;SDS011;24244;51.950;5.902;2024-02-26T10:32:58;11.48;;;6.43;;
38465;SDS011;24244;51.950;5.902;2024-02-26T10:35:25;12.35;;;5.97;;
38465;SDS011;24244;51.950;5.902;2024-02-26T10:37:52;14.13;;;6.20;;
38465;SDS011;24244;51.950;5.902;2024-02-26T10:40:21;10.98;;;5.20;;
38465;SDS011;24244;51.950;5.902;2024-02-26T10:42:48;14.40;;;7.07;;
38465;SDS011;24244;51.950;5.902;2024-02-26T10:45:15;11.88;;;5.30;;
38465;SDS011;24244;51.950;5.902;2024-02-26T10:47:42;10.32;;;5.40;;
38465;SDS011;24244;51.950;5.902;2024-02-26T10:50:09;11.55;;;5.63;;
38465;SDS011;24244;51.950;5.902;2024-02-26T10:52:39;14.23;;;7.00;;
38465;SDS011;24244;51.950;5.902;2024-02-26T10:55:08;14.05;;;6.20;;
38465;SDS011;24244;51.950;5.902;2024-02-26T10:57:43;11.40;;;6.63;;
38465;SDS011;24244;51.950;5.902;2024-02-26T11:00:13;10.90;;;5.65;;
38465;SDS011;24244;51.950;5.902;2024-02-26T11:02:41;11.27;;;6.13;;
38465;SDS011;24244;51.950;5.902;2024-02-26T11:05:11;12.38;;;5.90;;
38465;SDS011;24244;51.950;5.902;2024-02-26T11:07:39;11.95;;;5.55;;
38465;SDS011;24244;51.950;5.902;2024-02-26T11:10:08;12.63;;;6.35;;
38465;SDS011;24244;51.950;5.902;2024-02-26T11:12:37;12.45;;;6.85;;
38465;SDS011;24244;51.950;5.902;2024-02-26T11:15:07;13.40;;;6.45;;
38465;SDS011;24244;51.950;5.902;2024-02-26T11:17:35;13.70;;;5.78;;
38465;SDS011;24244;51.950;5.902;2024-02-26T11:20:05;13.55;;;6.40;;
38465;SDS011;24244;51.950;5.902;2024-02-26T11:22:36;13.85;;;7.30;;
38465;SDS011;24244;51.950;5.902;2024-02-26T11:25:03;13.55;;;6.55;;
38465;SDS011;24244;51.950;5.902;2024-02-26T11:27:32;13.68;;;7.28;;
38465;SDS011;24244;51.950;5.902;2024-02-26T11:30:03;11.73;;;7.03;;
38465;SDS011;24244;51.950;5.902;2024-02-26T11:32:37;12.95;;;6.75;;
38465;SDS011;24244;51.950;5.902;2024-02-26T11:35:05;13.45;;;7.35;;
38465;SDS011;24244;51.950;5.902;2024-02-26T11:37:33;11.77;;;7.13;;
38465;SDS011;24244;51.950;5.902;2024-02-26T11:40:09;13.43;;;7.38;;
38465;SDS011;24244;51.950;5.902;2024-02-26T11:42:43;13.48;;;6.40;;
38465;SDS011;24244;51.950;5.902;2024-02-26T11:48:19;11.77;;;6.25;;
38465;SDS011;24244;51.950;5.902;2024-02-26T11:50:48;13.45;;;7.03;;
38465;SDS011;24244;51.950;5.902;2024-02-26T11:53:20;13.07;;;7.18;;
38465;SDS011;24244;51.950;5.902;2024-02-26T11:55:48;12.60;;;6.70;;
38465;SDS011;24244;51.950;5.902;2024-02-26T11:58:18;11.02;;;5.68;;
38465;SDS011;24244;51.950;5.902;2024-02-26T12:00:44;12.85;;;6.78;;
38465;SDS011;24244;51.950;5.902;2024-02-26T12:03:11;11.63;;;6.75;;
38465;SDS011;24244;51.950;5.902;2024-02-26T12:05:40;9.90;;;6.45;;
38465;SDS011;24244;51.950;5.902;2024-02-26T12:08:08;13.15;;;5.57;;
38465;SDS011;24244;51.950;5.902;2024-02-26T12:10:36;10.13;;;5.15;;
38465;SDS011;24244;51.950;5.902;2024-02-26T12:13:07;10.05;;;5.10;;
38465;SDS011;24244;51.950;5.902;2024-02-26T12:15:44;14.65;;;5.43;;
38465;SDS011;24244;51.950;5.902;2024-02-26T12:18:15;11.45;;;4.63;;
38465;SDS011;24244;51.950;5.902;2024-02-26T12:20:45;11.05;;;5.13;;
38465;SDS011;24244;51.950;5.902;2024-02-26T12:23:14;11.40;;;5.78;;
38465;SDS011;24244;51.950;5.902;2024-02-26T12:25:43;8.30;;;4.63;;
38465;SDS011;24244;51.950;5.902;2024-02-26T12:28:10;10.13;;;4.85;;
38465;SDS011;24244;51.950;5.902;2024-02-26T12:30:37;9.45;;;5.07;;
38465;SDS011;24244;51.950;5.902;2024-02-26T12:33:04;9.40;;;4.90;;
38465;SDS011;24244;51.950;5.902;2024-02-26T12:35:33;10.40;;;5.57;;
38465;SDS011;24244;51.950;5.902;2024-02-26T12:38:02;9.25;;;4.43;;
38465;SDS011;24244;51.950;5.902;2024-02-26T12:40:30;7.97;;;3.75;;
38465;SDS011;24244;51.950;5.902;2024-02-26T12:42:58;9.98;;;4.10;;
38465;SDS011;24244;51.950;5.902;2024-02-26T12:45:25;9.80;;;4.88;;
38465;SDS011;24244;51.950;5.902;2024-02-26T12:47:52;9.43;;;4.68;;
38465;SDS011;24244;51.950;5.902;2024-02-26T12:50:19;7.65;;;4.00;;
38465;SDS011;24244;51.950;5.902;2024-02-26T12:52:47;7.28;;;3.95;;
38465;SDS011;24244;51.950;5.902;2024-02-26T12:55:16;7.40;;;3.67;;
38465;SDS011;24244;51.950;5.902;2024-02-26T12:57:45;9.00;;;4.80;;
38465;SDS011;24244;51.950;5.902;2024-02-26T13:00:13;6.75;;;4.13;;
38465;SDS011;24244;51.950;5.902;2024-02-26T13:02:42;6.78;;;3.38;;
38465;SDS011;24244;51.950;5.902;2024-02-26T13:05:11;8.32;;;4.07;;
38465;SDS011;24244;51.950;5.902;2024-02-26T13:07:42;8.65;;;4.32;;
38465;SDS011;24244;51.950;5.902;2024-02-26T13:10:10;10.02;;;5.28;;
38465;SDS011;24244;51.950;5.902;2024-02-26T13:12:43;8.10;;;4.20;;
38465;SDS011;24244;51.950;5.902;2024-02-26T13:15:14;9.25;;;4.13;;
38465;SDS011;24244;51.950;5.902;2024-02-26T13:17:42;10.68;;;4.25;;
38465;SDS011;24244;51.950;5.902;2024-02-26T13:20:09;8.27;;;4.30;;
38465;SDS011;24244;51.950;5.902;2024-02-26T13:22:36;9.27;;;5.40;;
38465;SDS011;24244;51.950;5.902;2024-02-26T13:25:04;9.05;;;4.30;;
38465;SDS011;24244;51.950;5.902;2024-02-26T13:27:34;9.68;;;4.88;;
38465;SDS011;24244;51.950;5.902;2024-02-26T13:30:07;9.68;;;4.93;;
38465;SDS011;24244;51.950;5.902;2024-02-26T13:32:37;9.70;;;5.45;;
38465;SDS011;24244;51.950;5.902;2024-02-26T13:35:06;9.82;;;5.00;;
38465;SDS011;24244;51.950;5.902;2024-02-26T13:37:34;8.27;;;4.90;;
38465;SDS011;24244;51.950;5.902;2024-02-26T13:40:01;8.32;;;3.70;;
38465;SDS011;24244;51.950;5.902;2024-02-26T13:42:31;8.20;;;4.50;;
38465;SDS011;24244;51.950;5.902;2024-02-26T13:44:59;10.80;;;4.85;;
38465;SDS011;24244;51.950;5.902;2024-02-26T13:47:27;9.13;;;5.20;;
38465;SDS011;24244;51.950;5.902;2024-02-26T13:49:56;10.45;;;5.22;;
38465;SDS011;24244;51.950;5.902;2024-02-26T13:52:23;9.85;;;5.75;;
38465;SDS011;24244;51.950;5.902;2024-02-26T13:54:52;9.05;;;4.97;;
38465;SDS011;24244;51.950;5.902;2024-02-26T13:57:18;9.38;;;5.38;;
38465;SDS011;24244;51.950;5.902;2024-02-26T13:59:46;8.98;;;5.05;;
38465;SDS011;24244;51.950;5.902;2024-02-26T14:02:12;8.18;;;4.07;;
38465;SDS011;24244;51.950;5.902;2024-02-26T14:04:41;8.38;;;4.13;;
38465;SDS011;24244;51.950;5.902;2024-02-26T14:07:07;8.93;;;5.55;;
38465;SDS011;24244;51.950;5.902;2024-02-26T14:09:35;9.65;;;4.68;;
38465;SDS011;24244;51.950;5.902;2024-02-26T14:12:15;8.20;;;4.47;;
38465;SDS011;24244;51.950;5.902;2024-02-26T14:14:43;8.63;;;4.70;;
38465;SDS011;24244;51.950;5.902;2024-02-26T14:17:11;9.00;;;5.15;;
38465;SDS011;24244;51.950;5.902;2024-02-26T14:19:40;11.20;;;4.78;;
38465;SDS011;24244;51.950;5.902;2024-02-26T14:22:10;9.32;;;4.72;;
38465;SDS011;24244;51.950;5.902;2024-02-26T14:24:37;8.23;;;4.75;;
38465;SDS011;24244;51.950;5.902;2024-02-26T14:27:04;8.77;;;5.45;;
38465;SDS011;24244;51.950;5.902;2024-02-26T14:29:31;8.80;;;4.18;;
38465;SDS011;24244;51.950;5.902;2024-02-26T14:31:58;10.50;;;5.25;;
38465;SDS011;24244;51.950;5.902;2024-02-26T14:34:26;8.77;;;4.05;;
38465;SDS011;24244;51.950;5.902;2024-02-26T14:36:54;10.02;;;4.60;;
38465;SDS011;24244;51.950;5.902;2024-02-26T14:39:22;8.98;;;5.03;;
38465;SDS011;24244;51.950;5.902;2024-02-26T14:41:50;9.43;;;4.60;;
38465;SDS011;24244;51.950;5.902;2024-02-26T14:44:18;11.43;;;5.80;;
38465;SDS011;24244;51.950;5.902;2024-02-26T14:46:45;9.13;;;4.47;;
38465;SDS011;24244;51.950;5.902;2024-02-26T14:49:11;8.73;;;5.03;;
38465;SDS011;24244;51.950;5.902;2024-02-26T14:51:40;8.82;;;4.53;;